Depesze METAR lotnisk w Polsce

METAR – format kodowanego raportu o pogodzie używany w meteorologii lotniczej i prognozie pogody. METAR jest akronimem od ang. Meteorological Aerodrome Report. Typowy METAR zawiera informację o temperaturze, ciśnieniu, temperaturze punktu rosy, sile i kierunku wiatru, opadzie, pokrywie chmur, wysokości podstawy chmur, widzialności, lecz może zawierać też inne informacje (np. stan dróg startowych).

Warszawa-Okęcie (EPWA)

METAR = EPWA 031330Z 30006KT 270V330 CAVOK 22/18 Q1013 NOSIG

STACJA......... EPWA - Warszawa-Okęcie (WAW)
POMIAR......... Fri Jul 3, 15:30 CEST
WIATR.......... zachodni północno-zachodni (WNW) z prędkością 11 km/h
WIDZIALNOŚĆ.... powyżej 10 kilometrów
CHMURY......... bezchmurne niebo
TEMPERATURA.... 22°C
T.PUNKTU ROSY.. 18°C
WILGOTNOŚĆ..... 78%
CIŚNIENIE...... 1013 hPa
CIŚN.BEZWZGL... 1000 hPa
PROGNOZA....... bez nagłych zmian w ciągu 2h

Sprawdź też: Prognoza pogody Warszawa

Warszawa-Modlin (EPMO)

METAR = EPMO 031330Z 30008KT 260V320 9999 FEW018 21/17 Q1013 =

STACJA......... EPMO - Warszawa-Modlin (WMI)
POMIAR......... Fri Jul 3, 15:30 CEST
WIATR.......... zachodni północno-zachodni (WNW) z prędkością 15 km/h
WIDZIALNOŚĆ.... powyżej 10 kilometrów
CHMURY......... zachmurzenie niewielkie (1/8-2/8)
TEMPERATURA.... 21°C
T.PUNKTU ROSY.. 17°C
WILGOTNOŚĆ..... 78%
CIŚNIENIE...... 1013 hPa
CIŚN.BEZWZGL... 1001 hPa

Sprawdź też: Prognoza pogody Nowy Dwór Mazowiecki

Kraków-Balice (EPKK)

METAR = EPKK 031330Z 28010KT 9999 SCT017 20/17 Q1014

STACJA......... EPKK - Kraków-Balice (KRK)
POMIAR......... Fri Jul 3, 15:30 CEST
WIATR.......... zachodni (W) z prędkością 19 km/h
WIDZIALNOŚĆ.... powyżej 10 kilometrów
CHMURY......... zachmurzenie małe (3/8-4/8)
TEMPERATURA.... 20°C
T.PUNKTU ROSY.. 17°C
WILGOTNOŚĆ..... 83%
CIŚNIENIE...... 1014 hPa
CIŚN.BEZWZGL... 986 hPa

Sprawdź też: Prognoza pogody Kraków

Łódź-Lublinek (EPLL)

METAR = EPLL 031330Z 30010KT 260V340 9999 SCT032 22/14 Q1014

STACJA......... EPLL - Łódź-Lublinek (LCJ)
POMIAR......... Fri Jul 3, 15:30 CEST
WIATR.......... zachodni północno-zachodni (WNW) z prędkością 19 km/h
WIDZIALNOŚĆ.... powyżej 10 kilometrów
CHMURY......... zachmurzenie małe (3/8-4/8)
TEMPERATURA.... 22°C
T.PUNKTU ROSY.. 14°C
WILGOTNOŚĆ..... 61%
CIŚNIENIE...... 1014 hPa
CIŚN.BEZWZGL... 993 hPa

Sprawdź też: Prognoza pogody Łódź

Wrocław-Strachowice (EPWR)

METAR = EPWR 031330Z 31012KT 9999 FEW031 22/13 Q1015

STACJA......... EPWR - Wrocław-Strachowice (WRO)
POMIAR......... Fri Jul 3, 15:30 CEST
WIATR.......... północno zachodni (NW) z prędkością 22 km/h
WIDZIALNOŚĆ.... powyżej 10 kilometrów
CHMURY......... zachmurzenie niewielkie (1/8-2/8)
TEMPERATURA.... 22°C
T.PUNKTU ROSY.. 13°C
WILGOTNOŚĆ..... 57%
CIŚNIENIE...... 1015 hPa
CIŚN.BEZWZGL... 1001 hPa

Sprawdź też: Prognoza pogody Wrocław

Katowice-Pyrzowice (EPKT)

METAR = EPKT 031330Z 31007KT 250V350 9999 SCT025 BKN040 21/15 Q1015

STACJA......... EPKT - Katowice-Pyrzowice (KTW)
POMIAR......... Fri Jul 3, 15:30 CEST
WIATR.......... północno zachodni (NW) z prędkością 13 km/h
WIDZIALNOŚĆ.... powyżej 10 kilometrów
CHMURY......... zachmurzenie średnie (5/8-7/8)
TEMPERATURA.... 21°C
T.PUNKTU ROSY.. 15°C
WILGOTNOŚĆ..... 69%
CIŚNIENIE...... 1015 hPa
CIŚN.BEZWZGL... 980 hPa

Sprawdź też: Prognoza pogody Katowice

Gdańsk (EPGD)

METAR = EPGD 031330Z 09004KT 050V130 9999 SCT036 19/15 Q1012

STACJA......... EPGD - Gdańsk im. Lecha Wałęsy (GDN)
POMIAR......... Fri Jul 3, 15:30 CEST
WIATR.......... wschodni (E) z prędkością 7 km/h
WIDZIALNOŚĆ.... powyżej 10 kilometrów
CHMURY......... zachmurzenie małe (3/8-4/8)
TEMPERATURA.... 19°C
T.PUNKTU ROSY.. 15°C
WILGOTNOŚĆ..... 78%
CIŚNIENIE...... 1012 hPa
CIŚN.BEZWZGL... 995 hPa

Sprawdź też: Prognoza pogody Gdańsk

Poznań-Ławica (EPPO)

METAR = EPPO 031330Z 26010KT 9999 SCT045 23/12 Q1014

STACJA......... EPPO - Poznań-Ławica (POZ)
POMIAR......... Fri Jul 3, 15:30 CEST
WIATR.......... zachodni (W) z prędkością 19 km/h
WIDZIALNOŚĆ.... powyżej 10 kilometrów
CHMURY......... zachmurzenie małe (3/8-4/8)
TEMPERATURA.... 23°C
T.PUNKTU ROSY.. 12°C
WILGOTNOŚĆ..... 50%
CIŚNIENIE...... 1014 hPa
CIŚN.BEZWZGL... 1003 hPa

Sprawdź też: Prognoza pogody Poznań

Rzeszów-Jasionka (EPRZ)

METAR = EPRZ 031330Z 01009KT 9999 FEW037CB 23/18 Q1012

STACJA......... EPRZ - Rzeszów-Jasionka (RZE)
POMIAR......... Fri Jul 3, 15:30 CEST
WIATR.......... północny (N) z prędkością 17 km/h
WIDZIALNOŚĆ.... powyżej 10 kilometrów
CHMURY......... zachmurzenie niewielkie (1/8-2/8)
TEMPERATURA.... 23°C
T.PUNKTU ROSY.. 18°C
WILGOTNOŚĆ..... 74%
CIŚNIENIE...... 1012 hPa
CIŚN.BEZWZGL... 988 hPa

Sprawdź też: Prognoza pogody Rzeszów

Szczecin-Goleniów (EPSC)

METAR = EPSC 031330Z 28011KT 250V320 9999 SCT034 21/11 Q1014

STACJA......... EPSC - Szczecin-Goleniów (SZZ)
POMIAR......... Fri Jul 3, 15:30 CEST
WIATR.......... zachodni (W) z prędkością 20 km/h
WIDZIALNOŚĆ.... powyżej 10 kilometrów
CHMURY......... zachmurzenie małe (3/8-4/8)
TEMPERATURA.... 21°C
T.PUNKTU ROSY.. 11°C
WILGOTNOŚĆ..... 53%
CIŚNIENIE...... 1014 hPa
CIŚN.BEZWZGL... 1009 hPa

Sprawdź też: Prognoza pogody Szczecin

Lublin-Świdnik (EPLB)

METAR = EPLB 031330Z 34007KT 300V360 9999 FEW017 22/20 Q1011 =

STACJA......... EPLB - Lublin-Świdnik (LUZ)
POMIAR......... Fri Jul 3, 15:30 CEST
WIATR.......... północno północno-zachodni (NNW) z prędkością 13 km/h
WIDZIALNOŚĆ.... powyżej 10 kilometrów
CHMURY......... zachmurzenie niewielkie (1/8-2/8)
TEMPERATURA.... 22°C
T.PUNKTU ROSY.. 20°C
WILGOTNOŚĆ..... 88%
CIŚNIENIE...... 1011 hPa
CIŚN.BEZWZGL... 988 hPa

Sprawdź też: Prognoza pogody Lublin

Bydgoszcz-Szwederowo (EPBY)

METAR = EPBY 031330Z 27011KT 230V300 9999 SCT041TCU 23/13 Q1013=

STACJA......... EPBY - Bydgoszcz-Szwederowo (BZG)
POMIAR......... Fri Jul 3, 15:30 CEST
WIATR.......... zachodni (W) z prędkością 20 km/h
WIDZIALNOŚĆ.... powyżej 10 kilometrów
CHMURY......... zachmurzenie małe (3/8-4/8)
TEMPERATURA.... 23°C
T.PUNKTU ROSY.. 13°C
WILGOTNOŚĆ..... 53%
CIŚNIENIE...... 1013 hPa
CIŚN.BEZWZGL... 1005 hPa

Sprawdź też: Prognoza pogody Bydgoszcz

Zielona Góra-Babimost (EPZG)

METAR = EPZG 031330Z 26008KT 210V300 9999 FEW048TCU 23/10 Q1015 =

STACJA......... EPZG - Zielona Góra-Babimost (IEG)
POMIAR......... Fri Jul 3, 15:30 CEST
WIATR.......... zachodni (W) z prędkością 15 km/h
WIDZIALNOŚĆ.... powyżej 10 kilometrów
CHMURY......... zachmurzenie niewielkie (1/8-2/8)
TEMPERATURA.... 23°C
T.PUNKTU ROSY.. 10°C
WILGOTNOŚĆ..... 44%
CIŚNIENIE...... 1015 hPa
CIŚN.BEZWZGL... 1008 hPa

Sprawdź też: Prognoza pogody Zielona Góra

Szymany Olsztyn-Mazury (EPSY)

METAR = EPSY 031330Z 30008KT 260V340 9999 FEW035 22/15 Q1012=

STACJA......... EPSY - Olsztyn-Mazury (SZY)
POMIAR......... Fri Jul 3, 15:30 CEST
WIATR.......... zachodni północno-zachodni (WNW) z prędkością 15 km/h
WIDZIALNOŚĆ.... powyżej 10 kilometrów
CHMURY......... zachmurzenie niewielkie (1/8-2/8)
TEMPERATURA.... 22°C
T.PUNKTU ROSY.. 15°C
WILGOTNOŚĆ..... 65%
CIŚNIENIE...... 1012 hPa
CIŚN.BEZWZGL... 996 hPa

Sprawdź też: Prognoza pogody Olsztyn